sensor_id;sensor_type;location;lat;lon;timestamp;pressure;altitude;pressure_sealevel;temperature;humidity
23303;BME280;11820;48.738;9.092;2023-01-26T00:03:43;96765.47;;;1.52;nan
23303;BME280;11820;48.738;9.092;2023-01-26T00:06:11;96763.69;;;1.43;nan
23303;BME280;11820;48.738;9.092;2023-01-26T00:08:39;96758.88;;;1.50;nan
23303;BME280;11820;48.738;9.092;2023-01-26T00:11:07;96757.16;;;1.50;nan
23303;BME280;11820;48.738;9.092;2023-01-26T00:13:34;96759.97;;;1.47;nan
23303;BME280;11820;48.738;9.092;2023-01-26T00:16:01;96752.84;;;1.51;nan
23303;BME280;11820;48.738;9.092;2023-01-26T00:18:27;96751.19;;;1.40;nan
23303;BME280;11820;48.738;9.092;2023-01-26T00:21:00;96737.09;;;1.36;nan
23303;BME280;11820;48.738;9.092;2023-01-26T00:23:28;96732.50;;;1.30;nan
23303;BME280;11820;48.738;9.092;2023-01-26T00:25:55;96726.56;;;1.20;nan
23303;BME280;11820;48.738;9.092;2023-01-26T00:28:21;96723.69;;;1.34;nan
23303;BME280;11820;48.738;9.092;2023-01-26T00:30:47;96714.38;;;1.44;nan
23303;BME280;11820;48.738;9.092;2023-01-26T00:33:14;96705.84;;;1.34;nan
23303;BME280;11820;48.738;9.092;2023-01-26T00:35:40;96705.53;;;1.48;nan
23303;BME280;11820;48.738;9.092;2023-01-26T00:38:12;96702.84;;;1.50;nan
23303;BME280;11820;48.738;9.092;2023-01-26T00:40:39;96700.75;;;1.55;nan
23303;BME280;11820;48.738;9.092;2023-01-26T00:43:05;96705.78;;;1.45;nan
23303;BME280;11820;48.738;9.092;2023-01-26T00:45:31;96703.41;;;1.53;nan
23303;BME280;11820;48.738;9.092;2023-01-26T00:47:57;96697.59;;;1.42;nan
23303;BME280;11820;48.738;9.092;2023-01-26T00:50:25;96691.44;;;1.44;nan
23303;BME280;11820;48.738;9.092;2023-01-26T00:52:51;96693.47;;;1.50;nan
23303;BME280;11820;48.738;9.092;2023-01-26T00:55:18;96693.63;;;1.58;nan
23303;BME280;11820;48.738;9.092;2023-01-26T00:57:44;96690.16;;;1.59;nan
23303;BME280;11820;48.738;9.092;2023-01-26T01:00:10;96683.44;;;1.58;nan
23303;BME280;11820;48.738;9.092;2023-01-26T01:02:42;96681.94;;;1.46;nan
23303;BME280;11820;48.738;9.092;2023-01-26T01:05:08;96685.69;;;1.42;nan
23303;BME280;11820;48.738;9.092;2023-01-26T01:07:34;96680.31;;;1.45;nan
23303;BME280;11820;48.738;9.092;2023-01-26T01:10:00;96677.78;;;1.45;nan
23303;BME280;11820;48.738;9.092;2023-01-26T01:12:26;96680.03;;;1.39;nan
23303;BME280;11820;48.738;9.092;2023-01-26T01:14:52;96682.72;;;1.47;nan
23303;BME280;11820;48.738;9.092;2023-01-26T01:17:18;96682.41;;;1.31;nan
23303;BME280;11820;48.738;9.092;2023-01-26T01:19:44;96682.09;;;1.24;nan
23303;BME280;11820;48.738;9.092;2023-01-26T01:22:10;96687.88;;;1.26;nan
23303;BME280;11820;48.738;9.092;2023-01-26T01:24:36;96688.28;;;1.31;nan
23303;BME280;11820;48.738;9.092;2023-01-26T01:27:02;96677.78;;;1.45;nan
23303;BME280;11820;48.738;9.092;2023-01-26T01:29:28;96687.50;;;1.31;nan
23303;BME280;11820;48.738;9.092;2023-01-26T01:31:54;96682.78;;;1.26;nan
23303;BME280;11820;48.738;9.092;2023-01-26T01:34:20;96680.22;;;1.26;nan
23303;BME280;11820;48.738;9.092;2023-01-26T01:36:46;96674.50;;;1.34;nan
23303;BME280;11820;48.738;9.092;2023-01-26T01:39:11;96673.31;;;1.38;nan
23303;BME280;11820;48.738;9.092;2023-01-26T01:41:37;96670.94;;;1.46;nan
23303;BME280;11820;48.738;9.092;2023-01-26T01:46:36;96670.41;;;1.42;nan
23303;BME280;11820;48.738;9.092;2023-01-26T01:49:22;96674.94;;;1.39;nan
23303;BME280;11820;48.738;9.092;2023-01-26T01:51:56;96664.38;;;1.43;nan
23303;BME280;11820;48.738;9.092;2023-01-26T01:54:37;96662.22;;;1.48;nan
23303;BME280;11820;48.738;9.092;2023-01-26T01:57:07;96655.69;;;1.55;nan
23303;BME280;11820;48.738;9.092;2023-01-26T01:59:44;96665.03;;;1.45;nan
23303;BME280;11820;48.738;9.092;2023-01-26T02:02:12;96656.09;;;1.60;nan
23303;BME280;11820;48.738;9.092;2023-01-26T02:04:38;96656.25;;;1.58;nan
23303;BME280;11820;48.738;9.092;2023-01-26T02:07:03;96655.13;;;1.52;nan
23303;BME280;11820;48.738;9.092;2023-01-26T02:09:34;96658.13;;;1.57;nan
23303;BME280;11820;48.738;9.092;2023-01-26T02:12:25;96649.25;;;1.51;nan
23303;BME280;11820;48.738;9.092;2023-01-26T02:14:52;96647.44;;;1.72;nan
23303;BME280;11820;48.738;9.092;2023-01-26T02:17:18;96650.38;;;1.77;nan
23303;BME280;11820;48.738;9.092;2023-01-26T02:19:59;96645.28;;;1.77;nan
23303;BME280;11820;48.738;9.092;2023-01-26T02:25:26;96640.69;;;1.61;nan
23303;BME280;11820;48.738;9.092;2023-01-26T02:27:57;96647.03;;;1.67;nan
23303;BME280;11820;48.738;9.092;2023-01-26T02:30:22;96643.59;;;1.48;nan
23303;BME280;11820;48.738;9.092;2023-01-26T02:32:49;96641.09;;;1.27;nan
23303;BME280;11820;48.738;9.092;2023-01-26T02:35:14;96633.13;;;1.41;nan
23303;BME280;11820;48.738;9.092;2023-01-26T02:37:39;96630.59;;;1.51;nan
23303;BME280;11820;48.738;9.092;2023-01-26T02:40:12;96633.44;;;1.57;nan
23303;BME280;11820;48.738;9.092;2023-01-26T02:42:40;96639.59;;;1.64;nan
23303;BME280;11820;48.738;9.092;2023-01-26T02:45:10;96632.91;;;1.63;nan
23303;BME280;11820;48.738;9.092;2023-01-26T02:47:36;96627.13;;;1.61;nan
23303;BME280;11820;48.738;9.092;2023-01-26T02:50:02;96630.78;;;1.68;nan
23303;BME280;11820;48.738;9.092;2023-01-26T02:52:28;96625.69;;;1.68;nan
23303;BME280;11820;48.738;9.092;2023-01-26T02:54:57;96625.03;;;1.66;nan
23303;BME280;11820;48.738;9.092;2023-01-26T02:57:41;96625.16;;;1.74;nan
23303;BME280;11820;48.738;9.092;2023-01-26T03:00:13;96623.84;;;1.79;nan
23303;BME280;11820;48.738;9.092;2023-01-26T03:02:39;96624.22;;;1.75;nan
23303;BME280;11820;48.738;9.092;2023-01-26T03:05:05;96618.72;;;1.70;nan
23303;BME280;11820;48.738;9.092;2023-01-26T03:07:31;96611.75;;;1.72;nan
23303;BME280;11820;48.738;9.092;2023-01-26T03:09:56;96616.22;;;1.79;nan
23303;BME280;11820;48.738;9.092;2023-01-26T03:12:25;96612.84;;;1.79;nan
23303;BME280;11820;48.738;9.092;2023-01-26T03:14:51;96610.97;;;1.81;nan
23303;BME280;11820;48.738;9.092;2023-01-26T03:17:46;96619.00;;;1.76;nan
23303;BME280;11820;48.738;9.092;2023-01-26T03:20:11;96608.41;;;1.81;nan
23303;BME280;11820;48.738;9.092;2023-01-26T03:22:56;96607.47;;;1.82;nan
23303;BME280;11820;48.738;9.092;2023-01-26T03:25:40;96607.00;;;1.58;nan
23303;BME280;11820;48.738;9.092;2023-01-26T03:28:24;96594.28;;;1.58;nan
23303;BME280;11820;48.738;9.092;2023-01-26T03:30:51;96599.91;;;1.52;nan
23303;BME280;11820;48.738;9.092;2023-01-26T03:33:18;96588.63;;;1.45;nan
23303;BME280;11820;48.738;9.092;2023-01-26T03:35:43;96589.41;;;1.46;nan
23303;BME280;11820;48.738;9.092;2023-01-26T03:38:09;96573.88;;;1.49;nan
23303;BME280;11820;48.738;9.092;2023-01-26T03:40:35;96576.41;;;1.49;nan
23303;BME280;11820;48.738;9.092;2023-01-26T03:43:18;96582.84;;;1.52;nan
23303;BME280;11820;48.738;9.092;2023-01-26T03:46:04;96580.06;;;1.56;nan
23303;BME280;11820;48.738;9.092;2023-01-26T03:48:48;96576.31;;;1.50;nan
23303;BME280;11820;48.738;9.092;2023-01-26T03:51:32;96578.44;;;1.45;nan
23303;BME280;11820;48.738;9.092;2023-01-26T03:54:16;96577.63;;;1.45;nan
23303;BME280;11820;48.738;9.092;2023-01-26T03:57:00;96577.63;;;1.45;nan
23303;BME280;11820;48.738;9.092;2023-01-26T03:59:25;96577.31;;;1.38;nan
23303;BME280;11820;48.738;9.092;2023-01-26T04:02:16;96582.59;;;1.46;nan
23303;BME280;11820;48.738;9.092;2023-01-26T04:05:00;96579.47;;;1.33;nan
23303;BME280;11820;48.738;9.092;2023-01-26T04:07:44;96584.03;;;1.30;nan
23303;BME280;11820;48.738;9.092;2023-01-26T04:10:28;96584.28;;;1.36;nan
23303;BME280;11820;48.738;9.092;2023-01-26T04:12:54;96587.16;;;1.13;nan
23303;BME280;11820;48.738;9.092;2023-01-26T04:15:37;96586.91;;;1.16;nan
23303;BME280;11820;48.738;9.092;2023-01-26T04:18:22;96584.69;;;1.32;nan
23303;BME280;11820;48.738;9.092;2023-01-26T04:21:06;96584.97;;;1.38;nan
23303;BME280;11820;48.738;9.092;2023-01-26T04:23:52;96586.00;;;1.26;nan
23303;BME280;11820;48.738;9.092;2023-01-26T04:26:20;96587.25;;;1.32;nan
23303;BME280;11820;48.738;9.092;2023-01-26T04:28:46;96584.81;;;1.30;nan
23303;BME280;11820;48.738;9.092;2023-01-26T04:31:11;96589.38;;;1.36;nan
23303;BME280;11820;48.738;9.092;2023-01-26T04:33:36;96588.78;;;1.14;nan
23303;BME280;11820;48.738;9.092;2023-01-26T04:36:06;96589.09;;;1.20;nan
23303;BME280;11820;48.738;9.092;2023-01-26T04:38:31;96582.38;;;1.19;nan
23303;BME280;11820;48.738;9.092;2023-01-26T04:40:57;96583.47;;;1.26;nan
23303;BME280;11820;48.738;9.092;2023-01-26T04:43:23;96576.72;;;1.16;nan
23303;BME280;11820;48.738;9.092;2023-01-26T04:48:23;96562.13;;;1.18;nan
23303;BME280;11820;48.738;9.092;2023-01-26T04:51:06;96563.88;;;1.17;nan
23303;BME280;11820;48.738;9.092;2023-01-26T04:53:32;96561.19;;;1.19;nan
23303;BME280;11820;48.738;9.092;2023-01-26T04:55:58;96560.81;;;1.23;nan
23303;BME280;11820;48.738;9.092;2023-01-26T04:58:23;96563.13;;;0.96;nan
23303;BME280;11820;48.738;9.092;2023-01-26T05:00:50;96564.38;;;1.11;nan
23303;BME280;11820;48.738;9.092;2023-01-26T05:03:16;96562.50;;;1.13;nan
23303;BME280;11820;48.738;9.092;2023-01-26T05:05:41;96567.06;;;1.10;nan
23303;BME280;11820;48.738;9.092;2023-01-26T05:08:07;96563.88;;;1.27;nan
23303;BME280;11820;48.738;9.092;2023-01-26T05:10:32;96562.00;;;1.19;nan
23303;BME280;11820;48.738;9.092;2023-01-26T05:12:58;96555.88;;;1.31;nan
23303;BME280;11820;48.738;9.092;2023-01-26T05:15:24;96560.44;;;1.37;nan
23303;BME280;11820;48.738;9.092;2023-01-26T05:17:49;96558.66;;;1.19;nan
23303;BME280;11820;48.738;9.092;2023-01-26T05:20:15;96564.38;;;1.11;nan
23303;BME280;11820;48.738;9.092;2023-01-26T05:22:40;96560.00;;;1.23;nan
23303;BME280;11820;48.738;9.092;2023-01-26T05:25:06;96563.69;;;1.09;nan
23303;BME280;11820;48.738;9.092;2023-01-26T05:27:31;96560.09;;;1.12;nan
23303;BME280;11820;48.738;9.092;2023-01-26T05:29:56;96562.75;;;1.10;nan
23303;BME280;11820;48.738;9.092;2023-01-26T05:32:25;96563.28;;;1.04;nan
23303;BME280;11820;48.738;9.092;2023-01-26T05:34:51;96571.50;;;0.87;nan
23303;BME280;11820;48.738;9.092;2023-01-26T05:37:16;96567.81;;;0.71;nan
23303;BME280;11820;48.738;9.092;2023-01-26T05:39:42;96570.81;;;0.85;nan
23303;BME280;11820;48.738;9.092;2023-01-26T05:42:07;96570.72;;;0.87;nan
23303;BME280;11820;48.738;9.092;2023-01-26T05:44:32;96573.38;;;0.85;nan
23303;BME280;11820;48.738;9.092;2023-01-26T05:46:58;96567.94;;;0.69;nan
23303;BME280;11820;48.738;9.092;2023-01-26T05:49:23;96576.47;;;0.89;nan
23303;BME280;11820;48.738;9.092;2023-01-26T05:51:48;96574.41;;;0.73;nan
23303;BME280;11820;48.738;9.092;2023-01-26T05:54:14;96570.91;;;0.74;nan
23303;BME280;11820;48.738;9.092;2023-01-26T05:56:39;96574.91;;;0.67;nan
23303;BME280;11820;48.738;9.092;2023-01-26T05:59:04;96577.19;;;0.70;nan
23303;BME280;11820;48.738;9.092;2023-01-26T06:01:29;96579.94;;;0.58;nan
23303;BME280;11820;48.738;9.092;2023-01-26T06:03:55;96571.63;;;0.56;nan
23303;BME280;11820;48.738;9.092;2023-01-26T06:06:20;96570.56;;;0.58;nan
23303;BME280;11820;48.738;9.092;2023-01-26T06:08:45;96573.34;;;0.55;nan
23303;BME280;11820;48.738;9.092;2023-01-26T06:11:11;96572.41;;;0.56;nan
23303;BME280;11820;48.738;9.092;2023-01-26T06:13:36;96582.78;;;0.64;nan
23303;BME280;11820;48.738;9.092;2023-01-26T06:16:01;96578.19;;;0.58;nan
23303;BME280;11820;48.738;9.092;2023-01-26T06:18:26;96585.88;;;0.47;nan
23303;BME280;11820;48.738;9.092;2023-01-26T06:20:52;96582.72;;;0.55;nan
23303;BME280;11820;48.738;9.092;2023-01-26T06:23:17;96575.28;;;0.63;nan
23303;BME280;11820;48.738;9.092;2023-01-26T06:25:42;96571.78;;;0.64;nan
23303;BME280;11820;48.738;9.092;2023-01-26T06:28:08;96583.09;;;0.50;nan
23303;BME280;11820;48.738;9.092;2023-01-26T06:30:33;96585.13;;;0.56;nan
23303;BME280;11820;48.738;9.092;2023-01-26T06:32:59;96585.75;;;0.49;nan
23303;BME280;11820;48.738;9.092;2023-01-26T06:35:25;96584.03;;;0.49;nan
23303;BME280;11820;48.738;9.092;2023-01-26T06:37:51;96584.72;;;0.51;nan
23303;BME280;11820;48.738;9.092;2023-01-26T06:40:17;96591.41;;;0.52;nan
23303;BME280;11820;48.738;9.092;2023-01-26T06:42:47;96583.09;;;0.50;nan
23303;BME280;11820;48.738;9.092;2023-01-26T06:45:13;96581.75;;;0.46;nan
23303;BME280;11820;48.738;9.092;2023-01-26T06:47:46;96578.06;;;0.60;nan
23303;BME280;11820;48.738;9.092;2023-01-26T06:50:18;96577.19;;;0.50;nan
23303;BME280;11820;48.738;9.092;2023-01-26T06:52:50;96578.78;;;0.51;nan
23303;BME280;11820;48.738;9.092;2023-01-26T06:55:35;96587.94;;;0.53;nan
23303;BME280;11820;48.738;9.092;2023-01-26T06:58:01;96583.94;;;0.60;nan
23303;BME280;11820;48.738;9.092;2023-01-26T07:00:27;96579.13;;;0.57;nan
23303;BME280;11820;48.738;9.092;2023-01-26T07:02:52;96583.78;;;0.52;nan
23303;BME280;11820;48.738;9.092;2023-01-26T07:05:18;96574.44;;;0.62;nan
23303;BME280;11820;48.738;9.092;2023-01-26T07:07:43;96580.00;;;0.67;nan
23303;BME280;11820;48.738;9.092;2023-01-26T07:10:10;96583.59;;;0.65;nan
23303;BME280;11820;48.738;9.092;2023-01-26T07:12:45;96585.50;;;0.72;nan
23303;BME280;11820;48.738;9.092;2023-01-26T07:15:11;96581.88;;;0.65;nan
23303;BME280;11820;48.738;9.092;2023-01-26T07:17:38;96585.44;;;0.63;nan
23303;BME280;11820;48.738;9.092;2023-01-26T07:20:05;96585.63;;;0.71;nan
23303;BME280;11820;48.738;9.092;2023-01-26T07:22:31;96590.09;;;1.08;nan
23303;BME280;11820;48.738;9.092;2023-01-26T07:24:57;96586.66;;;1.19;nan
23303;BME280;11820;48.738;9.092;2023-01-26T07:27:22;96594.56;;;1.16;nan
23303;BME280;11820;48.738;9.092;2023-01-26T07:29:49;96598.47;;;1.29;nan
23303;BME280;11820;48.738;9.092;2023-01-26T07:32:16;96596.38;;;1.04;nan
23303;BME280;11820;48.738;9.092;2023-01-26T07:34:43;96596.13;;;1.07;nan
23303;BME280;11820;48.738;9.092;2023-01-26T07:37:09;96597.00;;;0.97;nan
23303;BME280;11820;48.738;9.092;2023-01-26T07:39:35;96590.19;;;0.97;nan
23303;BME280;11820;48.738;9.092;2023-01-26T07:42:00;96595.38;;;0.96;nan
23303;BME280;11820;48.738;9.092;2023-01-26T07:44:26;96597.97;;;1.05;nan
23303;BME280;11820;48.738;9.092;2023-01-26T07:46:52;96587.16;;;1.13;nan
23303;BME280;11820;48.738;9.092;2023-01-26T07:49:18;96587.22;;;1.22;nan
23303;BME280;11820;48.738;9.092;2023-01-26T07:51:44;96591.75;;;0.89;nan
23303;BME280;11820;48.738;9.092;2023-01-26T07:54:10;96590.75;;;0.80;nan
23303;BME280;11820;48.738;9.092;2023-01-26T07:56:39;96599.00;;;0.73;nan
23303;BME280;11820;48.738;9.092;2023-01-26T07:59:04;96596.94;;;0.87;nan
23303;BME280;11820;48.738;9.092;2023-01-26T08:01:30;96597.31;;;1.03;nan
23303;BME280;11820;48.738;9.092;2023-01-26T08:03:56;96596.47;;;0.93;nan
23303;BME280;11820;48.738;9.092;2023-01-26T08:06:22;96597.31;;;1.03;nan
23303;BME280;11820;48.738;9.092;2023-01-26T08:08:49;96602.13;;;1.06;nan
23303;BME280;11820;48.738;9.092;2023-01-26T08:11:16;96594.25;;;1.09;nan
23303;BME280;11820;48.738;9.092;2023-01-26T08:13:43;96601.03;;;0.99;nan
23303;BME280;11820;48.738;9.092;2023-01-26T08:16:10;96600.06;;;1.21;nan
23303;BME280;11820;48.738;9.092;2023-01-26T08:18:40;96602.28;;;1.05;nan
23303;BME280;11820;48.738;9.092;2023-01-26T08:21:07;96598.06;;;1.24;nan
23303;BME280;11820;48.738;9.092;2023-01-26T08:23:32;96602.31;;;1.14;nan
23303;BME280;11820;48.738;9.092;2023-01-26T08:26:03;96604.25;;;1.01;nan
23303;BME280;11820;48.738;9.092;2023-01-26T08:28:30;96598.41;;;0.80;nan
23303;BME280;11820;48.738;9.092;2023-01-26T08:31:11;96600.47;;;0.66;nan
23303;BME280;11820;48.738;9.092;2023-01-26T08:33:40;96600.59;;;0.64;nan
23303;BME280;11820;48.738;9.092;2023-01-26T08:36:08;96597.53;;;0.70;nan
23303;BME280;11820;48.738;9.092;2023-01-26T08:38:35;96595.25;;;0.67;nan
23303;BME280;11820;48.738;9.092;2023-01-26T08:41:01;96593.34;;;0.60;nan
23303;BME280;11820;48.738;9.092;2023-01-26T08:43:27;96590.72;;;0.50;nan
23303;BME280;11820;48.738;9.092;2023-01-26T08:45:52;96594.38;;;0.57;nan
23303;BME280;11820;48.738;9.092;2023-01-26T08:48:18;96598.41;;;0.60;nan
23303;BME280;11820;48.738;9.092;2023-01-26T08:50:44;96586.81;;;0.67;nan
23303;BME280;11820;48.738;9.092;2023-01-26T08:53:10;96591.91;;;0.46;nan
23303;BME280;11820;48.738;9.092;2023-01-26T08:55:35;96588.78;;;0.63;nan
23303;BME280;11820;48.738;9.092;2023-01-26T08:58:01;96586.94;;;0.65;nan
23303;BME280;11820;48.738;9.092;2023-01-26T09:00:26;96589.97;;;0.59;nan
23303;BME280;11820;48.738;9.092;2023-01-26T09:03:02;96590.00;;;0.89;nan
23303;BME280;11820;48.738;9.092;2023-01-26T09:05:30;96587.16;;;0.83;nan
23303;BME280;11820;48.738;9.092;2023-01-26T09:07:56;96586.50;;;0.81;nan
23303;BME280;11820;48.738;9.092;2023-01-26T09:10:22;96586.53;;;0.90;nan
23303;BME280;11820;48.738;9.092;2023-01-26T09:12:47;96587.06;;;0.64;nan
23303;BME280;11820;48.738;9.092;2023-01-26T09:15:13;96579.75;;;0.70;nan
23303;BME280;11820;48.738;9.092;2023-01-26T09:17:38;96587.25;;;0.51;nan
23303;BME280;11820;48.738;9.092;2023-01-26T09:20:05;96586.56;;;0.49;nan
23303;BME280;11820;48.738;9.092;2023-01-26T09:22:31;96589.91;;;0.50;nan
23303;BME280;11820;48.738;9.092;2023-01-26T09:24:56;96587.94;;;0.53;nan
23303;BME280;11820;48.738;9.092;2023-01-26T09:27:22;96588.50;;;0.57;nan
23303;BME280;11820;48.738;9.092;2023-01-26T09:29:48;96591.16;;;0.55;nan
23303;BME280;11820;48.738;9.092;2023-01-26T09:32:13;96583.69;;;0.63;nan
23303;BME280;11820;48.738;9.092;2023-01-26T09:34:39;96590.66;;;0.82;nan
23303;BME280;11820;48.738;9.092;2023-01-26T09:37:08;96594.38;;;0.57;nan
23303;BME280;11820;48.738;9.092;2023-01-26T09:39:34;96595.97;;;0.58;nan
23303;BME280;11820;48.738;9.092;2023-01-26T09:50:20;96609.44;;;0.70;nan
23303;BME280;11820;48.738;9.092;2023-01-26T09:52:57;96607.28;;;0.65;nan
23303;BME280;11820;48.738;9.092;2023-01-26T09:55:26;96609.19;;;0.52;nan
23303;BME280;11820;48.738;9.092;2023-01-26T09:58:05;96602.09;;;0.46;nan
23303;BME280;11820;48.738;9.092;2023-01-26T10:00:40;96612.06;;;0.38;nan
23303;BME280;11820;48.738;9.092;2023-01-26T10:06:27;96600.56;;;0.44;nan
23303;BME280;11820;48.738;9.092;2023-01-26T10:09:12;96601.06;;;0.58;nan
23303;BME280;11820;48.738;9.092;2023-01-26T10:11:45;96593.34;;;0.60;nan
23303;BME280;11820;48.738;9.092;2023-01-26T10:14:20;96602.69;;;0.59;nan
23303;BME280;11820;48.738;9.092;2023-01-26T10:16:50;96600.72;;;0.42;nan
23303;BME280;11820;48.738;9.092;2023-01-26T10:21:54;96595.19;;;0.58;nan
23303;BME280;11820;48.738;9.092;2023-01-26T10:24:23;96594.38;;;0.57;nan
23303;BME280;11820;48.738;9.092;2023-01-26T10:26:51;96584.59;;;0.53;nan
23303;BME280;11820;48.738;9.092;2023-01-26T10:29:18;96588.09;;;0.61;nan
23303;BME280;11820;48.738;9.092;2023-01-26T10:31:44;96588.25;;;0.39;nan
23303;BME280;11820;48.738;9.092;2023-01-26T10:34:16;96584.09;;;0.38;nan
23303;BME280;11820;48.738;9.092;2023-01-26T10:36:45;96594.03;;;0.41;nan
23303;BME280;11820;48.738;9.092;2023-01-26T10:39:14;96589.03;;;0.40;nan
23303;BME280;11820;48.738;9.092;2023-01-26T10:41:55;96595.91;;;0.49;nan
23303;BME280;11820;48.738;9.092;2023-01-26T10:44:44;96595.56;;;0.33;nan
23303;BME280;11820;48.738;9.092;2023-01-26T10:47:18;96593.81;;;0.33;nan
23303;BME280;11820;48.738;9.092;2023-01-26T10:49:45;96593.16;;;0.52;nan
23303;BME280;11820;48.738;9.092;2023-01-26T10:52:21;96592.88;;;0.34;nan
23303;BME280;11820;48.738;9.092;2023-01-26T10:55:24;96588.28;;;0.28;nan
23303;BME280;11820;48.738;9.092;2023-01-26T10:57:50;96589.22;;;0.27;nan
23303;BME280;11820;48.738;9.092;2023-01-26T11:00:37;96586.59;;;0.18;nan
23303;BME280;11820;48.738;9.092;2023-01-26T11:03:15;96589.59;;;0.23;nan
23303;BME280;11820;48.738;9.092;2023-01-26T11:05:41;96586.75;;;0.16;nan
23303;BME280;11820;48.738;9.092;2023-01-26T11:08:35;96583.47;;;0.25;nan
23303;BME280;11820;48.738;9.092;2023-01-26T11:11:02;96584.28;;;0.46;nan
23303;BME280;11820;48.738;9.092;2023-01-26T11:13:28;96586.69;;;0.48;nan
23303;BME280;11820;48.738;9.092;2023-01-26T11:16:16;96575.53;;;0.39;nan
23303;BME280;11820;48.738;9.092;2023-01-26T11:18:55;96570.94;;;0.33;nan
23303;BME280;11820;48.738;9.092;2023-01-26T11:21:40;96568.84;;;0.38;nan
23303;BME280;11820;48.738;9.092;2023-01-26T11:35:27;96561.06;;;0.40;nan
23303;BME280;11820;48.738;9.092;2023-01-26T11:41:16;96553.59;;;0.38;nan
23303;BME280;11820;48.738;9.092;2023-01-26T11:46:43;96550.72;;;0.32;nan
23303;BME280;11820;48.738;9.092;2023-01-26T11:49:44;96543.22;;;0.30;nan
23303;BME280;11820;48.738;9.092;2023-01-26T11:57:59;96537.28;;;0.20;nan
23303;BME280;11820;48.738;9.092;2023-01-26T12:00:44;96535.16;;;0.25;nan
23303;BME280;11820;48.738;9.092;2023-01-26T12:03:24;96536.09;;;0.24;nan
23303;BME280;11820;48.738;9.092;2023-01-26T12:05:55;96528.09;;;0.49;nan
23303;BME280;11820;48.738;9.092;2023-01-26T12:08:26;96530.38;;;0.52;nan
23303;BME280;11820;48.738;9.092;2023-01-26T12:11:21;96519.53;;;0.30;nan
23303;BME280;11820;48.738;9.092;2023-01-26T12:14:10;96530.00;;;0.36;nan
23303;BME280;11820;48.738;9.092;2023-01-26T12:19:32;96517.94;;;0.29;nan
23303;BME280;11820;48.738;9.092;2023-01-26T12:22:09;96513.22;;;0.24;nan
23303;BME280;11820;48.738;9.092;2023-01-26T12:24:42;96514.88;;;0.35;nan
23303;BME280;11820;48.738;9.092;2023-01-26T12:27:27;96511.72;;;0.22;nan
23303;BME280;11820;48.738;9.092;2023-01-26T12:30:19;96511.59;;;0.23;nan
23303;BME280;11820;48.738;9.092;2023-01-26T12:32:47;96508.19;;;0.34;nan
23303;BME280;11820;48.738;9.092;2023-01-26T12:35:13;96506.69;;;0.31;nan
23303;BME280;11820;48.738;9.092;2023-01-26T12:38:00;96498.69;;;0.36;nan
23303;BME280;11820;48.738;9.092;2023-01-26T12:40:30;96493.66;;;0.45;nan
23303;BME280;11820;48.738;9.092;2023-01-26T12:43:50;96493.00;;;0.43;nan
23303;BME280;11820;48.738;9.092;2023-01-26T12:45:56;96496.31;;;0.44;nan
23303;BME280;11820;48.738;9.092;2023-01-26T12:51:36;96489.03;;;0.30;nan
23303;BME280;11820;48.738;9.092;2023-01-26T12:56:56;96478.00;;;0.20;nan
23303;BME280;11820;48.738;9.092;2023-01-26T12:59:26;96480.25;;;0.13;nan
23303;BME280;11820;48.738;9.092;2023-01-26T13:01:53;96483.06;;;0.20;nan
23303;BME280;11820;48.738;9.092;2023-01-26T13:04:19;96489.09;;;-0.02;nan
23303;BME280;11820;48.738;9.092;2023-01-26T13:07:00;96487.38;;;0.19;nan
23303;BME280;11820;48.738;9.092;2023-01-26T13:09:27;96491.06;;;0.36;nan
23303;BME280;11820;48.738;9.092;2023-01-26T13:11:57;96485.38;;;0.23;nan
23303;BME280;11820;48.738;9.092;2023-01-26T13:16:52;96482.63;;;0.35;nan
23303;BME280;11820;48.738;9.092;2023-01-26T13:19:34;96485.69;;;0.29;nan
23303;BME280;11820;48.738;9.092;2023-01-26T13:22:00;96484.50;;;0.33;nan
23303;BME280;11820;48.738;9.092;2023-01-26T13:26:52;96481.69;;;0.36;nan
23303;BME280;11820;48.738;9.092;2023-01-26T13:31:44;96478.97;;;0.28;nan
23303;BME280;11820;48.738;9.092;2023-01-26T13:34:11;96485.25;;;0.24;nan
23303;BME280;11820;48.738;9.092;2023-01-26T13:36:42;96478.06;;;0.29;nan
23303;BME280;11820;48.738;9.092;2023-01-26T13:39:21;96474.00;;;0.47;nan
23303;BME280;11820;48.738;9.092;2023-01-26T13:41:50;96474.84;;;0.27;nan
23303;BME280;11820;48.738;9.092;2023-01-26T13:44:19;96471.78;;;0.33;nan
23303;BME280;11820;48.738;9.092;2023-01-26T13:47:01;96471.19;;;0.20;nan
23303;BME280;11820;48.738;9.092;2023-01-26T13:49:39;96484.44;;;0.44;nan
23303;BME280;11820;48.738;9.092;2023-01-26T13:52:23;96481.09;;;0.23;nan
23303;BME280;11820;48.738;9.092;2023-01-26T13:54:51;96485.00;;;0.27;nan
23303;BME280;11820;48.738;9.092;2023-01-26T13:57:23;96481.94;;;0.33;nan
23303;BME280;11820;48.738;9.092;2023-01-26T13:59:56;96476.94;;;0.22;nan
23303;BME280;11820;48.738;9.092;2023-01-26T14:04:54;96480.75;;;0.37;nan
23303;BME280;11820;48.738;9.092;2023-01-26T14:07:33;96482.25;;;0.40;nan
23303;BME280;11820;48.738;9.092;2023-01-26T14:10:00;96480.69;;;0.48;nan
23303;BME280;11820;48.738;9.092;2023-01-26T14:12:35;96476.28;;;0.50;nan
23303;BME280;11820;48.738;9.092;2023-01-26T14:15:07;96487.41;;;0.49;nan
23303;BME280;11820;48.738;9.092;2023-01-26T14:17:48;96482.88;;;0.53;nan
23303;BME280;11820;48.738;9.092;2023-01-26T14:20:24;96477.28;;;0.59;nan
23303;BME280;11820;48.738;9.092;2023-01-26T14:23:13;96483.09;;;0.50;nan
23303;BME280;11820;48.738;9.092;2023-01-26T14:25:44;96485.31;;;0.34;nan
23303;BME280;11820;48.738;9.092;2023-01-26T14:28:19;96489.84;;;0.30;nan
23303;BME280;11820;48.738;9.092;2023-01-26T14:30:51;96492.56;;;0.38;nan
23303;BME280;11820;48.738;9.092;2023-01-26T14:33:18;96502.47;;;0.41;nan
23303;BME280;11820;48.738;9.092;2023-01-26T14:35:57;96501.97;;;0.47;nan
23303;BME280;11820;48.738;9.092;2023-01-26T14:38:22;96499.38;;;0.38;nan
23303;BME280;11820;48.738;9.092;2023-01-26T14:40:53;96499.25;;;0.39;nan
23303;BME280;11820;48.738;9.092;2023-01-26T14:43:19;96498.69;;;0.36;nan
23303;BME280;11820;48.738;9.092;2023-01-26T14:46:04;96511.31;;;0.47;nan
23303;BME280;11820;48.738;9.092;2023-01-26T14:48:37;96510.03;;;0.52;nan
23303;BME280;11820;48.738;9.092;2023-01-26T14:51:05;96513.59;;;0.70;nan
23303;BME280;11820;48.738;9.092;2023-01-26T14:53:37;96508.06;;;0.35;nan
23303;BME280;11820;48.738;9.092;2023-01-26T14:56:02;96508.09;;;0.45;nan